Terminal Aerodrome Forecast
Issued by NWS

Home | Current Version | Previous Version | Text Only | Print | Product List | Glossary On
Versions: 1 2 3 4 5 6 7 8 9 10 11 12 13 14 15 16
000
FTAK31 PAJN 282300
TAFAGY
TAF
PAGY 282336Z 2900/2924 04015G22KT P6SM SKC
     FM290400 04012KT P6SM SKC
     FM290900 03008KT P6SM SCT150
     FM291800 04007KT P6SM VCSH BKN080
      AMD LTD TO CLD VIS AND WIND=

USA.gov is the U.S. government's official web portal to all federal, state and local government web resources and services.